Aviation Digital Data Service (ADDS)

Output produced by METARs form (1401 UTC 20 January 2017)
found at http://www.aviationweather.gov/adds/metars/
 
METAR text: KSBP 201356Z 14015G23KT 2 1/2SM -RA BR FEW011 BKN032 OVC045 11/09 A2954 RMK AO2 SLP005 P0020 T01110094
Conditions at: KSBP (SAN LUIS OBISPO , CA, US) observed 1356 UTC 20 January 2017
Temperature: 11.1°C (52°F)
Dewpoint: 9.4°C (49°F) [RH = 89%]
Pressure (altimeter): 29.54 inches Hg (1000.4 mb)
[Sea-level pressure: 1000.5 mb]
Winds: from the SE (140 degrees) at 17 MPH (15 knots; 7.8 m/s)
gusting to 26 MPH (23 knots; 12.0 m/s)
Visibility: 2.50 miles (4.02 km)
Ceiling: 3200 feet AGL
Clouds: few clouds at 1100 feet AGL
broken clouds at 3200 feet AGL
overcast cloud deck at 4500 feet AGL
Weather: -RA BR  (light rain, mist)

METAR text: KSBP 201341Z AUTO 13016KT 3SM RA BR FEW013 SCT025 OVC039 11/09 A2956 RMK AO2 P0016 T01110094
Conditions at: KSBP (SAN LUIS OBISPO , CA, US) observed 1341 UTC 20 January 2017
Temperature: 11.1°C (52°F)
Dewpoint: 9.4°C (49°F) [RH = 89%]
Pressure (altimeter): 29.56 inches Hg (1001.1 mb)
Winds: from the SE (130 degrees) at 18 MPH (16 knots; 8.3 m/s)
Visibility: 3 miles (5 km)
Ceiling: 3900 feet AGL
Clouds: few clouds at 1300 feet AGL
scattered clouds at 2500 feet AGL
overcast cloud deck at 3900 feet AGL
Weather: RA BR  (rain, mist)

METAR text: KSBP 201318Z AUTO 14014KT 3SM -RA BR FEW008 BKN017 OVC035 11/09 A2959 RMK AO2 P0009 T01110094
Conditions at: KSBP (SAN LUIS OBISPO , CA, US) observed 1318 UTC 20 January 2017
Temperature: 11.1°C (52°F)
Dewpoint: 9.4°C (49°F) [RH = 89%]
Pressure (altimeter): 29.59 inches Hg (1002.1 mb)
Winds: from the SE (140 degrees) at 16 MPH (14 knots; 7.3 m/s)
Visibility: 3 miles (5 km)
Ceiling: 1700 feet AGL
Clouds: few clouds at 800 feet AGL
broken clouds at 1700 feet AGL
overcast cloud deck at 3500 feet AGL
Weather: -RA BR  (light rain, mist)

METAR text: KSBP 201313Z AUTO 14015G20KT 2 1/2SM RA BR BKN010 BKN017 OVC034 11/09 A2959 RMK AO2 P0008 T01110094
Conditions at: KSBP (SAN LUIS OBISPO , CA, US) observed 1313 UTC 20 January 2017
Temperature: 11.1°C (52°F)
Dewpoint: 9.4°C (49°F) [RH = 89%]
Pressure (altimeter): 29.59 inches Hg (1002.1 mb)
Winds: from the SE (140 degrees) at 17 MPH (15 knots; 7.8 m/s)
gusting to 23 MPH (20 knots; 10.4 m/s)
Visibility: 2.50 miles (4.02 km)
Ceiling: 1000 feet AGL
Clouds: broken clouds at 1000 feet AGL
broken clouds at 1700 feet AGL
overcast cloud deck at 3400 feet AGL
Weather: RA BR  (rain, mist)

METAR text: KSBP 201256Z AUTO 15012G22KT 3SM +RA BR BKN012 OVC017 11/09 A2963 RMK AO2 SLP031 P0012 T01110094
Conditions at: KSBP (SAN LUIS OBISPO , CA, US) observed 1256 UTC 20 January 2017
Temperature: 11.1°C (52°F)
Dewpoint: 9.4°C (49°F) [RH = 89%]
Pressure (altimeter): 29.63 inches Hg (1003.5 mb)
[Sea-level pressure: 1003.1 mb]
Winds: from the SSE (150 degrees) at 14 MPH (12 knots; 6.2 m/s)
gusting to 25 MPH (22 knots; 11.4 m/s)
Visibility: 3 miles (5 km)
Ceiling: 1200 feet AGL
Clouds: broken clouds at 1200 feet AGL
overcast cloud deck at 1700 feet AGL
Weather: +RA BR  (heavy rain, mist)

METAR text: KSBP 201238Z AUTO 14017G23KT 4SM RA BR BKN012 BKN020 OVC026 11/09 A2963 RMK AO2 P0004 T01110089
Conditions at: KSBP (SAN LUIS OBISPO , CA, US) observed 1238 UTC 20 January 2017
Temperature: 11.1°C (52°F)
Dewpoint: 8.9°C (48°F) [RH = 86%]
Pressure (altimeter): 29.63 inches Hg (1003.5 mb)
Winds: from the SE (140 degrees) at 20 MPH (17 knots; 8.8 m/s)
gusting to 26 MPH (23 knots; 12.0 m/s)
Visibility: 4 miles (6 km)
Ceiling: 1200 feet AGL
Clouds: broken clouds at 1200 feet AGL
broken clouds at 2000 feet AGL
overcast cloud deck at 2600 feet AGL
Weather: RA BR  (rain, mist)

METAR text: KSBP 201217Z AUTO 13015KT 7SM -RA FEW012 BKN025 OVC038 11/09 A2962 RMK AO2 PRESFR P0000 T01110089
Conditions at: KSBP (SAN LUIS OBISPO , CA, US) observed 1217 UTC 20 January 2017
Temperature: 11.1°C (52°F)
Dewpoint: 8.9°C (48°F) [RH = 86%]
Pressure (altimeter): 29.62 inches Hg (1003.1 mb)
Winds: from the SE (130 degrees) at 17 MPH (15 knots; 7.8 m/s)
Visibility: 7 miles (11 km)
Ceiling: 2500 feet AGL
Clouds: few clouds at 1200 feet AGL
broken clouds at 2500 feet AGL
overcast cloud deck at 3800 feet AGL
Weather: -RA  (light rain)

METAR text: KSBP 201156Z AUTO 14013KT 10SM -RA FEW021 BKN033 OVC045 12/09 A2965 RMK AO2 RAE05B43 SLP041 P0000 60016 70024 T01170089 10117 20111 58046
Conditions at: KSBP (SAN LUIS OBISPO , CA, US) observed 1156 UTC 20 January 2017
Temperature: 11.7°C (53°F)
Dewpoint: 8.9°C (48°F) [RH = 83%]
Pressure (altimeter): 29.65 inches Hg (1004.1 mb)
[Sea-level pressure: 1004.1 mb]
Winds: from the SE (140 degrees) at 15 MPH (13 knots; 6.8 m/s)
Visibility: 10 or more miles (16+ km)
Ceiling: 3300 feet AGL
Clouds: few clouds at 2100 feet AGL
broken clouds at 3300 feet AGL
overcast cloud deck at 4500 feet AGL
Weather: -RA  (light rain)

METAR text: KSBP 201146Z AUTO 13012KT 10SM -RA FEW021 SCT027 OVC047 12/09 A2966 RMK AO2 RAE05B43 P0000 T01170089
Conditions at: KSBP (SAN LUIS OBISPO , CA, US) observed 1146 UTC 20 January 2017
Temperature: 11.7°C (53°F)
Dewpoint: 8.9°C (48°F) [RH = 83%]
Pressure (altimeter): 29.66 inches Hg (1004.5 mb)
Winds: from the SE (130 degrees) at 14 MPH (12 knots; 6.2 m/s)
Visibility: 10 or more miles (16+ km)
Ceiling: 4700 feet AGL
Clouds: few clouds at 2100 feet AGL
scattered clouds at 2700 feet AGL
overcast cloud deck at 4700 feet AGL
Weather: -RA  (light rain)

METAR text: KSBP 201119Z AUTO 13011KT 10SM SCT019 BKN025 OVC050 11/09 A2970 RMK AO2 RAE05 P0000 T01110089
Conditions at: KSBP (SAN LUIS OBISPO , CA, US) observed 1119 UTC 20 January 2017
Temperature: 11.1°C (52°F)
Dewpoint: 8.9°C (48°F) [RH = 86%]
Pressure (altimeter): 29.70 inches Hg (1005.8 mb)
Winds: from the SE (130 degrees) at 13 MPH (11 knots; 5.7 m/s)
Visibility: 10 or more miles (16+ km)
Ceiling: 2500 feet AGL
Clouds: scattered clouds at 1900 feet AGL
broken clouds at 2500 feet AGL
overcast cloud deck at 5000 feet AGL
Weather: automated observation with no human augmentation;
there may or may not be significant weather present at this time

METAR text: KSBP 201056Z AUTO 13008KT 10SM -RA SCT017 BKN033 OVC055 11/09 A2973 RMK AO2 SLP067 P0001 T01110094
Conditions at: KSBP (SAN LUIS OBISPO , CA, US) observed 1056 UTC 20 January 2017
Temperature: 11.1°C (52°F)
Dewpoint: 9.4°C (49°F) [RH = 89%]
Pressure (altimeter): 29.73 inches Hg (1006.9 mb)
[Sea-level pressure: 1006.7 mb]
Winds: from the SE (130 degrees) at 9 MPH (8 knots; 4.2 m/s)
Visibility: 10 or more miles (16+ km)
Ceiling: 3300 feet AGL
Clouds: scattered clouds at 1700 feet AGL
broken clouds at 3300 feet AGL
overcast cloud deck at 5500 feet AGL
Weather: -RA  (light rain)

METAR text: KSBP 200956Z AUTO 14005KT 10SM -RA FEW015 OVC075 11/09 A2976 RMK AO2 SLP076 P0003 T01110094
Conditions at: KSBP (SAN LUIS OBISPO , CA, US) observed 0956 UTC 20 January 2017
Temperature: 11.1°C (52°F)
Dewpoint: 9.4°C (49°F) [RH = 89%]
Pressure (altimeter): 29.76 inches Hg (1007.9 mb)
[Sea-level pressure: 1007.6 mb]
Winds: from the SE (140 degrees) at 6 MPH (5 knots; 2.6 m/s)
Visibility: 10 or more miles (16+ km)
Ceiling: 7500 feet AGL
Clouds: few clouds at 1500 feet AGL
overcast cloud deck at 7500 feet AGL
Weather: -RA  (light rain)

METAR text: KSBP 200919Z AUTO 15006KT 4SM RA BR FEW009 BKN025 OVC044 11/09 A2978 RMK AO2 P0003 T01110094
Conditions at: KSBP (SAN LUIS OBISPO , CA, US) observed 0919 UTC 20 January 2017
Temperature: 11.1°C (52°F)
Dewpoint: 9.4°C (49°F) [RH = 89%]
Pressure (altimeter): 29.78 inches Hg (1008.5 mb)
Winds: from the SSE (150 degrees) at 7 MPH (6 knots; 3.1 m/s)
Visibility: 4 miles (6 km)
Ceiling: 2500 feet AGL
Clouds: few clouds at 900 feet AGL
broken clouds at 2500 feet AGL
overcast cloud deck at 4400 feet AGL
Weather: RA BR  (rain, mist)

METAR text: KSBP 200903Z AUTO 16008KT 4SM -RA BR SCT011 BKN030 OVC080 11/09 A2979 RMK AO2 P0000 T01110094
Conditions at: KSBP (SAN LUIS OBISPO , CA, US) observed 0903 UTC 20 January 2017
Temperature: 11.1°C (52°F)
Dewpoint: 9.4°C (49°F) [RH = 89%]
Pressure (altimeter): 29.79 inches Hg (1008.9 mb)
Winds: from the SSE (160 degrees) at 9 MPH (8 knots; 4.2 m/s)
Visibility: 4 miles (6 km)
Ceiling: 3000 feet AGL
Clouds: scattered clouds at 1100 feet AGL
broken clouds at 3000 feet AGL
overcast cloud deck at 8000 feet AGL
Weather: -RA BR  (light rain, mist)

METAR text: KSBP 200856Z AUTO 17007KT 7SM -RA SCT012 BKN028 OVC080 12/10 A2979 RMK AO2 SLP087 P0008 60012 T01170100 58022
Conditions at: KSBP (SAN LUIS OBISPO , CA, US) observed 0856 UTC 20 January 2017
Temperature: 11.7°C (53°F)
Dewpoint: 10.0°C (50°F) [RH = 89%]
Pressure (altimeter): 29.79 inches Hg (1008.9 mb)
[Sea-level pressure: 1008.7 mb]
Winds: from the S (170 degrees) at 8 MPH (7 knots; 3.6 m/s)
Visibility: 7 miles (11 km)
Ceiling: 2800 feet AGL
Clouds: scattered clouds at 1200 feet AGL
broken clouds at 2800 feet AGL
overcast cloud deck at 8000 feet AGL
Weather: -RA  (light rain)

METAR text: KSBP 200829Z AUTO 00000KT 4SM -RA BR FEW010 BKN023 OVC043 12/10 A2980 RMK AO2 P0008 T01170100
Conditions at: KSBP (SAN LUIS OBISPO , CA, US) observed 0829 UTC 20 January 2017
Temperature: 11.7°C (53°F)
Dewpoint: 10.0°C (50°F) [RH = 89%]
Pressure (altimeter): 29.80 inches Hg (1009.2 mb)
Winds: calm
Visibility: 4 miles (6 km)
Ceiling: 2300 feet AGL
Clouds: few clouds at 1000 feet AGL
broken clouds at 2300 feet AGL
overcast cloud deck at 4300 feet AGL
Weather: -RA BR  (light rain, mist)

METAR text: KSBP 200756Z AUTO 11004KT 5SM -RA BR FEW013 BKN034 OVC044 12/10 A2983 RMK AO2 RAB09 SLP102 P0004 T01170100 401670083
Conditions at: KSBP (SAN LUIS OBISPO , CA, US) observed 0756 UTC 20 January 2017
Temperature: 11.7°C (53°F)
Dewpoint: 10.0°C (50°F) [RH = 89%]
Pressure (altimeter): 29.83 inches Hg (1010.2 mb)
[Sea-level pressure: 1010.2 mb]
Winds: from the ESE (110 degrees) at 5 MPH (4 knots; 2.1 m/s)
Visibility: 5 miles (8 km)
Ceiling: 3400 feet AGL
Clouds: few clouds at 1300 feet AGL
broken clouds at 3400 feet AGL
overcast cloud deck at 4400 feet AGL
Weather: -RA BR  (light rain, mist)

METAR text: KSBP 200656Z AUTO 11004KT 10SM FEW037 SCT043 OVC080 12/10 A2985 RMK AO2 SLP109 T01170100
Conditions at: KSBP (SAN LUIS OBISPO , CA, US) observed 0656 UTC 20 January 2017
Temperature: 11.7°C (53°F)
Dewpoint: 10.0°C (50°F) [RH = 89%]
Pressure (altimeter): 29.85 inches Hg (1010.9 mb)
[Sea-level pressure: 1010.9 mb]
Winds: from the ESE (110 degrees) at 5 MPH (4 knots; 2.1 m/s)
Visibility: 10 or more miles (16+ km)
Ceiling: 8000 feet AGL
Clouds: few clouds at 3700 feet AGL
scattered clouds at 4300 feet AGL
overcast cloud deck at 8000 feet AGL
Weather: automated observation with no human augmentation;
there may or may not be significant weather present at this time

METAR text: KSBP 200618Z AUTO 12004KT 10SM SCT013 SCT018 OVC070 11/09 A2987 RMK AO2 T01110094
Conditions at: KSBP (SAN LUIS OBISPO , CA, US) observed 0618 UTC 20 January 2017
Temperature: 11.1°C (52°F)
Dewpoint: 9.4°C (49°F) [RH = 89%]
Pressure (altimeter): 29.87 inches Hg (1011.6 mb)
Winds: from the ESE (120 degrees) at 5 MPH (4 knots; 2.1 m/s)
Visibility: 10 or more miles (16+ km)
Ceiling: 7000 feet AGL
Clouds: scattered clouds at 1300 feet AGL
scattered clouds at 1800 feet AGL
overcast cloud deck at 7000 feet AGL
Weather: automated observation with no human augmentation;
there may or may not be significant weather present at this time